Fort Fisher — WCZ6290 — position and weather

sailwx.info

Track history (hours):
 
Tides and Currents Weather Stations Pressure Air Temp Water Temp Dewpoint Dewpoint Depression Visibility Wind Speed Wind Dir Waves Ship Positions

Fort Fisher

Owner: STATE OF NORTH CAROLINA DEPT OF TRANSPORTATION FERRY DIVISION, Havelock, NC. More information available from US FCC via Universal Licensing System and Coast Guard Vessel Documentation Center.

Last reported at 2018-Mar-23 13:15 UTC. Time now 2018-Apr-22 14:37 UTC.
Position N 34°43' W 076°57'.
Warning: this ship's position is 30 days out of date.

Length 52 m; draft 3.2 m.

Type: Passenger vessel. MMSI: 367432480.

Date/timePositionNaut miles runAvg speedWind from/ knotsBaromVisibWave heightAir tempDewpointWater temp
2018-Mar-23 13:15N 34°43' W 076°57'3 7.9
2018-Mar-23 12:56N 34°43' W 076°54'3 7.8
2018-Mar-23 12:31N 34°43' W 076°50'4 7.7
2018-Mar-23 12:00N 34°43' W 076°45'3 5.9
2018-Mar-23 11:30N 34°43' W 076°42'4 8.6
2018-Mar-23 11:00N 34°48' W 076°41'5 9.4
2018-Mar-23 10:31N 34°52' W 076°42'4 8.6
2018-Mar-23 10:00N 34°56' W 076°39'4 8.0
2018-Mar-23 09:30N 34°58' W 076°44'4 0.2
2018-Mar-22 11:31N 34°56' W 076°49'0 0.0
2018-Mar-21 20:11N 34°57' W 076°49'1 5.3
2018-Mar-21 19:55N 34°58' W 076°48'2 2.4
2018-Mar-21 19:14N 34°56' W 076°49'0 0.2
2018-Mar-21 18:11N 34°57' W 076°49'0 0.1
2018-Mar-21 15:47N 34°56' W 076°49'2 4.7
2018-Mar-21 15:24N 34°58' W 076°48'1 1.2
2018-Mar-21 14:12N 34°57' W 076°49'0 0.3
2018-Mar-21 13:07N 34°57' W 076°49'0 1.2
2018-Mar-21 12:44N 34°56' W 076°49'2 3.1
2018-Mar-21 12:12N 34°58' W 076°48'1 3.5
2018-Mar-21 11:51N 34°57' W 076°49'0 1.1
2018-Mar-21 11:29N 34°56' W 076°49'0 0.4
2018-Mar-21 10:26N 34°57' W 076°49'0 0.3
2018-Mar-21 09:53N 34°57' W 076°49'1 2.2
2018-Mar-21 09:27N 34°58' W 076°48'0 0.0
2018-Mar-21 04:23N 34°58' W 076°48'1 0.5
2018-Mar-21 02:05N 34°57' W 076°49'0 0.2
2018-Mar-21 01:11N 34°57' W 076°49'1 6.8
2018-Mar-21 00:58N 34°58' W 076°48'1 1.0
2018-Mar-20 23:36N 34°57' W 076°49'0 0.0
2018-Mar-20 22:35N 34°57' W 076°49'0 0.3
2018-Mar-20 22:06N 34°57' W 076°49'1 7.2
2018-Mar-20 21:59N 34°57' W 076°48'5 9.9
2018-Mar-20 21:30N 34°59' W 076°43'6 9.7
2018-Mar-20 20:56N 35°02' W 076°37'  
Track history (hours):
 
Tides and Currents Weather Stations Pressure Air Temp Water Temp Dewpoint Dewpoint Depression Visibility Wind Speed Wind Dir Waves Ship Positions

Fort Fisher

Owner: STATE OF NORTH CAROLINA DEPT OF TRANSPORTATION FERRY DIVISION, Havelock, NC. More information available from US FCC via Universal Licensing System and Coast Guard Vessel Documentation Center.

Last reported at 2018-Mar-23 13:15 UTC. Time now 2018-Apr-22 14:38 UTC.
Position N 34°43' W 076°57'.
Warning: this ship's position is 30 days out of date.

Length 52 m; draft 3.2 m.

Type: Passenger vessel. MMSI: 367432480.

Date/timePositionNaut miles runAvg speedWind from/ knotsBaromVisibWave heightAir tempDewpointWater temp
2018-Mar-23 13:15N 34°43' W 076°57'3 7.9
2018-Mar-23 12:56N 34°43' W 076°54'3 7.8
2018-Mar-23 12:31N 34°43' W 076°50'4 7.7
2018-Mar-23 12:00N 34°43' W 076°45'3 5.9
2018-Mar-23 11:30N 34°43' W 076°42'4 8.6
2018-Mar-23 11:00N 34°48' W 076°41'5 9.4
2018-Mar-23 10:31N 34°52' W 076°42'4 8.6
2018-Mar-23 10:00N 34°56' W 076°39'4 8.0
2018-Mar-23 09:30N 34°58' W 076°44'4 0.2
2018-Mar-22 11:31N 34°56' W 076°49'0 0.0
2018-Mar-21 20:11N 34°57' W 076°49'1 5.3
2018-Mar-21 19:55N 34°58' W 076°48'2 2.4
2018-Mar-21 19:14N 34°56' W 076°49'0 0.2
2018-Mar-21 18:11N 34°57' W 076°49'0 0.1
2018-Mar-21 15:47N 34°56' W 076°49'2 4.7
2018-Mar-21 15:24N 34°58' W 076°48'1 1.2
2018-Mar-21 14:12N 34°57' W 076°49'0 0.3
2018-Mar-21 13:07N 34°57' W 076°49'0 1.2
2018-Mar-21 12:44N 34°56' W 076°49'2 3.1
2018-Mar-21 12:12N 34°58' W 076°48'1 3.5
2018-Mar-21 11:51N 34°57' W 076°49'0 1.1
2018-Mar-21 11:29N 34°56' W 076°49'0 0.4
2018-Mar-21 10:26N 34°57' W 076°49'0 0.3
2018-Mar-21 09:53N 34°57' W 076°49'1 2.2
2018-Mar-21 09:27N 34°58' W 076°48'0 0.0
2018-Mar-21 04:23N 34°58' W 076°48'1 0.5
2018-Mar-21 02:05N 34°57' W 076°49'0 0.2
2018-Mar-21 01:11N 34°57' W 076°49'1 6.8
2018-Mar-21 00:58N 34°58' W 076°48'1 1.0
2018-Mar-20 23:36N 34°57' W 076°49'0 0.0
2018-Mar-20 22:35N 34°57' W 076°49'0 0.3
2018-Mar-20 22:06N 34°57' W 076°49'1 7.2
2018-Mar-20 21:59N 34°57' W 076°48'5 9.9
2018-Mar-20 21:30N 34°59' W 076°43'6 9.7
2018-Mar-20 20:56N 35°02' W 076°37'  

Dump ship's entire track history